Poplar, California
Current Conditions -  °F | °C
As of 6:55 PM on Thursday 18 Dec 2014 (Local Time) from KPTV Reporting Station
Clear Clear  
Wind Chill: 48°   Ceiling: Unl
Heat Index: 48°   Visibility: 10mi
Dew Point: 43°   Wind: 3mph
Humidity: 82%   Direction: 80°E
Pressure: 30.19"   Gusts: NA
Location:  36.0318°N, 118.965°W
Report Text: KPTV 190255Z AUTO 08003KT 10SM CLR 09/06 A3019 RMK AO1 52010
Loading
Personal Weather Stations






























Interactive Weather Map New forecast layout! Learn more

10-Day Weather Forecast

Advertisements
Track Severe Weather on mobile